août
18

MX FIM GP D’ANGLETERRE – LES QUALIFICATIONS : À VOTRE AVIS..?

MX1 – Qualifying Race – Classification
Pos Nr Rider Nat. Fed. Bike Time laps Diff. First Diff. Prev. Bestlaptime in lap Speed

1 222 Cairoli, Antonio ITA FMI KTM 24:54.829 11 0:00.000 0:00.000 2:02.946 3 48.021
2 12 Nagl, Maximilian GER DMSB KTM 25:02.093 11 0:07.264 0:07.264 2:03.193 3 47.925
3 9 de Dycker, Ken BEL FMB KTM 25:06.983 11 0:12.154 0:04.890 2:02.067 2 48.367
4 999 Goncalves, Rui POR FMP Honda 25:09.620 11 0:14.791 0:02.637 2:03.772 2 47.701
5 21 Paulin, Gautier FRA MCM Kawasaki 25:10.787 11 0:15.958 0:01.167 2:04.450 10 47.441
6 24 Simpson, Shaun GBR ACU Yamaha 25:14.054 11 0:19.225 0:03.267 2:03.702 8 47.728
7 25 Desalle, Clement BEL FMB Suzuki 25:26.664 11 0:31.835 0:12.610 2:02.066 5 48.367
8 30 Aranda, Gregory FRA FFM Yamaha 25:29.576 11 0:34.747 0:02.912 2:06.384 10 46.715
9 121 Boog, Xavier FRA FFM Kawasaki 25:29.987 11 0:35.158 0:00.411 2:05.419 8 47.074
10 22 Strijbos, Kevin BEL FMB KTM 25:34.054 11 0:39.225 0:04.067 2:05.065 10 47.207
11 23 Whatley, Kristian GBR ACU Yamaha 25:50.002 11 0:55.173 0:15.948 2:06.433 4 46.697
12 7 Barragan, Jonathan ESP RFME Honda 25:51.972 11 0:57.143 0:01.970 2:06.998 8 46.489
13 32 Potisek, Milko FRA FFM Honda 25:54.589 11 0:59.760 0:02.617 2:07.400 3 46.342
14 777 Bobryshev, Evgeny RUS MFR Honda 25:57.566 11 1:02.737 0:02.977 2:06.202 6 46.782
15 11 Pourcel, Sebastien FRA FFM Kawasaki 25:58.036 11 1:03.207 0:00.470 2:05.882 10 46.901
16 131 Aubin, Nicolas FRA FFM Honda 26:07.577 11 1:12.748 0:09.541 2:06.741 10 46.583
17 39 Guarneri, Davide ITA FMI KTM 26:19.657 11 1:24.828 0:12.080 2:06.784 8 46.567
18 37 Krestinov, Gert EST EMF Honda 26:21.082 11 1:26.253 0:01.425 2:09.657 5 45.536
19 42 Parker, Nathan GBR ACU KTM 26:30.224 11 1:35.395 0:09.142 2:10.707 6 45.17
20 82 Snow, Alex GBR ACU Kawasaki 26:34.261 11 1:39.432 0:04.037 2:09.706 10 45.518
21 555 Graeme, Irwin GBR ACU Yamaha 26:41.523 11 1:46.694 0:07.262 2:09.804 9 45.484
22 41 Smith, Alfie GBR ACU Yamaha 26:43.386 11 1:48.557 0:01.863 2:10.608 9 45.204
23 67 Tiainen, Santtu FIN SML Kawasaki 27:01.173 11 2:06.344 0:17.787 2:12.575 4 44.533
24 112 Law, Jamie GBR ACU KTM 27:05.651 11 2:10.822 0:04.478 2:12.321 7 44.619
25 95 Justs, Augusts LAT LAMSF Honda 27:09.693 11 2:14.864 0:04.042 2:12.409 4 44.589
26 80 Watson, Nathan GBR ACU Honda 25:31.916 10 1 lap 1 lap 2:12.845 3 44.443
27 611 Cociu, Mihail MDA FMI KTM 26:59.278 9 2 laps 1 lap 2:21.324 9 41.776
28 120 Soubeyras, Cedric FRA FFM Honda 13:54.926 5 6 laps 4 laps 2:10.622 1 45.199
29 377 Pourcel, Christophe FRA FFM Kawasaki 14:04.042 5 6 laps 0:09.116 2:04.214 3 47.531
30 212 de Reuver, Marc NED KNMV Kawasaki 4:39.525 1 10 laps 4 laps 2:15.048 1 43.718
31 4 Leok, Tanel EST EMF Suzuki 5:10.797 1 10 laps 0:31.272 2:47.869 1 35.17

MX2 – Qualifying Race – Classification
Pos Nr Rider Nat. Fed. Bike Time laps Diff. First Diff. Prev. Bestlaptime in lap Speed

1 84 Herlings, Jeffrey NED KNMV KTM 25:05.675 11 0:00.000 0:00.000 2:03.489 3 47.81
2 89 van Horebeek, Jeremy BEL FMB KTM 25:20.972 11 0:15.297 0:15.297 2:04.413 4 47.455
3 338 Osborne, Zachary USA ACU Yamaha 25:26.810 11 0:21.135 0:05.838 2:04.284 6 47.504
4 911 Tixier, Jordi FRA FFM KTM 25:35.046 11 0:29.371 0:08.236 2:06.533 4 46.66
5 173 Guillod, Valentin SUI FMS KTM 25:45.729 11 0:40.054 0:10.683 2:07.420 4 46.335
6 100 Searle, Tommy GBR ACU Kawasaki 25:48.976 11 0:43.301 0:03.247 2:03.360 6 47.86
7 45 Nicholls, Jake GBR ACU KTM 25:50.030 11 0:44.355 0:01.054 2:07.468 3 46.318
8 461 Febvre, Romain FRA FFM KTM 25:55.655 11 0:49.980 0:05.625 2:06.750 5 46.58
9 17 Butron, Jose ESP RFME KTM 25:56.961 11 0:51.286 0:01.306 2:07.939 6 46.147
10 44 Banks-Browne, Elliott GBR ACU KTM 25:58.849 11 0:53.174 0:01.888 2:07.411 6 46.338
11 25 Coldenhoff, Glenn NED KNMV KTM 25:59.342 11 0:53.667 0:00.493 2:07.206 5 46.413
12 77 Lupino, Alessandro ITA FMI Husqvarna 26:00.179 11 0:54.504 0:00.837 2:06.590 10 46.639
13 33 Lieber, Julien BEL FMB Suzuki 26:00.818 11 0:55.143 0:00.639 2:08.078 5 46.097
14 22 Ferrandis, Dylan FRA FFM Kawasaki 26:26.434 11 1:20.759 0:25.616 2:07.089 4 46.456
15 141 Cervellin, Andrea ITA FMI TM 26:31.164 11 1:25.489 0:04.730 2:09.257 5 45.676
16 51 Getteman, Jens BEL FMB Suzuki 26:33.410 11 1:27.735 0:02.246 2:08.990 4 45.771
17 170 Leib, Michael USA AMA Yamaha 26:39.250 11 1:33.575 0:05.840 2:10.140 5 45.367
18 711 Cottrell, James GBR ACU Honda 26:41.855 11 1:36.180 0:02.605 2:10.967 4 45.08
19 249 Larsen, Nikolaj DEN DMU Suzuki 26:42.705 11 1:37.030 0:00.850 2:10.201 4 45.345
20 103 Vandueren, Kenny BEL FMB Yamaha 26:48.127 11 1:42.452 0:05.422 2:11.504 5 44.896
21 68 Tombs, Lewis GBR ACU Honda 26:49.938 11 1:44.263 0:01.811 2:11.593 2 44.866
22 824 Kouwenberg, Nick NED KNMV TM 26:54.382 11 1:48.707 0:04.444 2:11.282 2 44.972
23 195 Justs, Roberts LAT LAMSF Honda 26:54.934 11 1:49.259 0:00.552 2:12.291 4 44.629
24 114 Booker, Jordan GBR ACU Honda 27:00.978 11 1:55.303 0:06.044 2:11.577 8 44.871
25 590 Triest, Nick BEL FMB Husqvarna 27:03.044 11 1:57.369 0:02.066 2:12.844 4 44.443
26 221 Rätsep, Priit EST EMF KTM 27:06.369 11 2:00.694 0:03.325 2:12.069 4 44.704
27 262 Del Segato, Giacomo ITA FMI KTM 27:11.431 11 2:05.756 0:05.062 2:13.273 4 44.3
28 300 Golovkin, Viacheslav RUS LAMSF Kawasaki 27:14.469 11 2:08.794 0:03.038 2:14.011 11 44.056
29 101 Zeni, Samuel ITA FMI Yamaha 27:16.680 11 2:11.005 0:02.211 2:11.887 2 44.766
30 66 Tonkov, Alexander RUS MFR Honda 23:49.357 10 1 lap 1 lap 2:06.988 2 46.493
31 15 Harwood, Hamish GBR ACU Honda 27:13.722 10 1 lap 3:24.365 2:15.654 6 43.522
32 37 Teillet, Valentin FRA FFM Kawasaki 25:37.566 9 2 laps 1 lap 2:05.660 4 46.984
33 128 Monticelli, Ivo ITA FMI Husqvarna 20:32.305 8 3 laps 1 lap 2:11.398 1 44.932
34 7 Tonus, Arnaud SUI FMS Yamaha 25:36.460 8 3 laps 5:04.155 2:05.236 3 47.143
35 6 Anstie, Max GBR AMA Honda 18:41.152 7 4 laps 1 lap 2:09.558 4 45.57

Round 8 – Great Britain – Matterley Basin, Winchester – 19 Aug 2012
MX3 – Overall Classification
Pos Nr Rider Nat. Fed. Bike Race 1 Race 2 Total

1 232 Michek, Martin CZE ACCR KTM 22 25 47
2 49 Schmidinger, Günter AUT OeAMTC Honda 20 18 38
3 215 Lynggaard, Kasper DEN DMU Kawasaki 14 22 36
4 62 Gercar, Klemen SLO AMZS Honda 15 20 35
5 52 Walkner, Matthias AUT OeAMTC KTM 25 9 34
6 300 Koskela, Niko FIN SML Kawasaki 11 14 25
7 388 Söderberg, Ludvig FIN SML Honda 8 15 23
8 111 Bartos, Petr CZE ACCR KTM 12 11 23
9 122 Brunell, Jack GBR ACU Kawasaki 13 10 23
10 289 Irt, Matevz SLO AMZS Suzuki 5 16 21
11 262 Lonka, Lukasz POL PZM Honda 9 12 21
12 112 Batista, Levy FRA FFM KTM 6 13 19
13 7 Staufer, Michael AUT OeAMTC KTM 18 0 18
14 213 Pyrhönen, Antti FIN SML Honda 16 1 17
15 23 Verstrepen, Stijn BEL FMB Honda 7 8 15
16 39 Cambre, Jilani BEL FMB Yamaha 10 0 10
17 88 Roncin, Pierrick FRA FFM Honda 0 7 7
18 71 Valente, Christopher SUI FMS KTM 1 6 7
19 129 Hill, Ross GBR ACU Suzuki 2 5 7
20 241 Rüf, Philip AUT OeAMTC Honda 3 4 7
21 171 Kovalainen, Marko FIN SML Yamaha 4 0 4
22 222 Purchase, George GBR ACU Kawasaki 0 3 3
23 259 Buso, Mattia ITA FMI KTM 0 2 2
24 387 Martens, Yentel BEL MUL Kawasaki 0 0 0
25 557 Begon, Loic BEL MUL Yamaha 0 0 0

Round 8 – Great Britain – Matterley Basin, Winchester – 19 Aug 2012
MX3 – Championship Classification
Pos Nr Rider Nat. Total NED FRA BUL ITA CRO SLO SVK GBR GER

1 52 Walkner, M. AUT 295 15-22 14-10 16-18 22-25 22-22 20-20 13-22 25-9 - -
2 62 Gercar, Klemen SLO 269 5-6 11-11 25-15 18-8 25-18 25-25 22-20 15-20 - -
3 232 Michek, Martin CZE 266 0-0 15-16 18-25 15-16 20-20 12-12 25-25 22-25 - -
4 49 Schmidinger, G. AUT 265 14-10 13-15 14-22 20-22 14-16 16-22 15-14 20-18 - -
5 213 Pyrhönen, A. FIN 230 18-13 12-13 15-16 9-14 18-15 18-18 16-18 16-1 - -
6 289 Irt, Matevz SLO 194 - - 1-4 22-14 16-20 15-25 22-16 18-0 5-16 - -
7 7 Staufer, M. AUT 185 0-0 10-12 20-11 25-18 16-9 0-14 20-12 18-0 - -
8 111 Bartos, Petr CZE 158 0-0 8-7 12-13 13-11 12-14 0-15 14-16 12-11 - -
9 262 Lonka, Lukasz POL 149 16-18 9-9 13-7 - - 8-10 13-13 12-0 9-12 - -
10 388 Söderberg, L. FIN 123 7-0 0-0 11-10 8-12 13-7 11-11 7-3 8-15 - -
11 67 Michalec, Petr CZE 90 0-1 4-5 10-12 2-13 5-12 - - 11-15 - - - -
12 23 Verstrepen, S. BEL 67 0-0 0-0 3-6 11-15 7-0 10-0 0-0 7-8 - -
13 116 Pashchynskyi, M. UKR 56 0-4 0-2 8-9 0-3 - - 14-6 0-10 - - - -
14 73 Parshin, D. RUS 54 - - - - - - 6-5 11-13 3-3 0-13 - - - -
15 56 Klein Kromhof, C. NED 49 20-0 - - 9-20 0-0 - - - - - - - - - -
16 48 Schmidinger, A. AUT 48 - - 0-0 4-5 - - 10-6 8-4 5-6 - - - -
17 120 Soubeyras, C. FRA 47 - - 25-22 - - - - - - - - - - - - - -
18 41 Wouts, Kevin BEL 47 22-25 - - - - - - - - - - - - - - - -
19 241 Rüf, Philip AUT 47 - - - - - - 12-0 0-8 7-8 0-5 3-4 - -
20 30 Aranda, G. FRA 45 - - 20-25 - - - - - - - - - - - - - ..

VMX – Overall Classification
Pos Nr Rider Nat. Fed. Bike Race 1 Race 2 Total

1 121 King, Darryll NZL MNZ Yamaha 25 25 50
2 5 Nilsson, Mats SWE SVEMO Yamaha 20 22 42
3 110 Colomer Genis, Xevi ESP RFME Suzuki 22 20 42
4 200 Mercer, Phil GBR ACU KTM 18 18 36
5 34 Edberg, Jonas SWE SVEMO Honda 16 16 32
6 88 Hoptrough, Gary GBR ACU KTM 15 14 29
7 23 Visser, Teunis NED KNMV Suzuki 14 12 26
8 36 Gordon, Matt GBR ACU Suzuki 11 13 24
9 70 Camps, Alfredo ESP RFME Honda 12 11 23
10 242 Gajser, Bogomir SLO AMZS KTM 13 10 23
11 41 Coward, Paul GBR ACU Kawasaki 9 9 18
12 30 Gonzalez, Pedro VEN FMV Honda 0 15 15
13 89 Traccan, Thierry FRA FFM Honda 7 8 15
14 31 Bergsma, Peter NED KNMV Suzuki 6 7 13
15 1 Bal, Pascal BEL FMB Yamaha 10 0 10
16 32 Vossers, Rudi NED KNMV Kawasaki 3 6 9
17 278 Tunnel, Tony GBR ACU Kawasaki 8 0 8
18 24 Seegers, Joel NED KNMV Yamaha 2 5 7
19 26 Stefansson, Ragnar ISL MSI Kawasaki 4 1 5
20 74 Rey Allue, Juan Carlos ESP RFME Honda 5 0 5
21 65 Hendrickx, Erwin NED KNMV Honda 0 4 4
22 39 Walker, Geoff IRL MCUI Husqvarna 1 3 4
23 401 Looman, Eddie NED KNMV Kawasaki 0 2 2
24 58 Polo, Marco ITA FMI Yamaha 0 0 0
25 221 Caillouet, Sebastien FRA FFM Yamaha 0 0 0
26 79 De Monmahou, Arnaud FRA FFM Honda 0 0 0
27 25 Massara, Matteo ITA FMI KTM 0 0 0
28 111 Punkki, Juha FIN SML KTM 0 0 0
29 35 Frank, Thomas GER DMSB KTM 0 0 0
30 84 Jorda Estany, Josep ESP RFME KTM 0 0 0
31 103 Mangili, Yves FRA FFM KTM 0 0 0
32 99 Rosay, Jean-Yves FRA FFM Honda 0 0 0
33 22 Court, Jonathan GBR ACU Honda 0 0 0
34 21 van den Mierden, Oscar NED KNMV Husqvarna 0 0 0

VMX – Championship Classification
Pos Nr Rider Nat. Total GBR

1 121 King, Darryll NZL 50 25-25
2 5 Nilsson, Mats SWE 42 20-22
3 110 Colomer Genis, X. ESP 42 22-20
4 200 Mercer, Phil GBR 36 18-18
5 34 Edberg, Jonas SWE 32 16-16
6 88 Hoptrough, G. GBR 29 15-14
7 23 Visser, Teunis NED 26 14-12
8 36 Gordon, Matt GBR 24 11-13
9 242 Gajser, B. SLO 23 13-10
10 70 Camps, Alfredo ESP 23 12-11
11 41 Coward, Paul GBR 18 9-9
12 30 Gonzalez, P. VEN 15 0-15
13 89 Traccan, T. FRA 15 7-8
14 31 Bergsma, Peter NED 13 6-7
15 1 Bal, Pascal BEL 10 10-0
16 32 Vossers, Rudi NED 9 3-6
17 27 Tunnel, Tony GBR 8 8-0
18 24 Seegers, Joel NED 7 2-5
19 74 Rey Allue, J. ESP 5 5-0
20 26 Stefansson, R. ISL 5 4-1
21 65 Hendrickx, E. NED 4 0-4
22 39 Walker, Geoff IRL 4 1-3
23 401 Looman, Eddie NED 2 0-2

Chiara Fontanesi (Yamaha..) Championne du Monde..!

Round 7 – Great Britain – Matterley Basin, Winchester – 19 Aug 2012
WMX – Overall Classification
Pos Nr Rider Nat. Fed. Bike Race 1 Race 2 Total

1 114 Lancelot, Livia FRA FFM Kawasaki 22 25 47
2 8 Fontanesi, Chiara ITA FMI Yamaha 25 20 45
3 44 Kane, Natalie GBR MCUI KTM 20 22 42
4 111 Borchers, Anne GER DMSB Suzuki 18 18 36
5 46 van der Wekken, Britt NED KNMV Honda 16 16 32
6 18 Germond, Virginie SUI FMS Suzuki 14 14 28
7 52 Charroux, Justine FRA FFM Yamaha 15 13 28
8 39 Fisher, Stacey GBR ACU KTM 8 11 19
9 23 Paull, Sophia GBR ACU Honda 9 9 18
10 98 Schittenhelm, Selina GER DMSB KTM 11 7 18
11 73 Pettersen, Marie S. NOR NMF Yamaha 5 12 17
12 151 Klink, Nina NED KNMV KTM 7 10 17
13 116 Nocera, Francesca ITA FMV KTM 0 15 15
14 47 Gowland, Chelsea GBR ACU Honda 6 8 14
15 79 Seisdedos, Gabriela ESP RFME Kawasaki 13 0 13
16 21 Irmgartz, Kim GER DMSB Suzuki 12 0 12
17 11 Goodlad, Amie GBR ACU Honda 10 0 10
18 34 Dunlop, Alix GBR ACU Honda 2 5 7
19 136 Dunlop, Billie GBR ACU Honda 0 6 6
20 30 Hamlet, Gabrielle GBR ACU Suzuki 3 2 5
21 43 Durston, Kayleigh GBR ACU Honda 4 1 5
22 195 Josta, Samanta LAT LAMSF KTM 0 4 4
23 69 Stoutjesdijk, Stephanie NED KNMV KTM 1 3 4
24 20 Lukkari, Jutta FIN SML KTM 0 0 0
25 51 Marsh, Danni GBR ACU Honda 0 0 0

Round 7 – Great Britain – Matterley Basin, Winchester – 19 Aug 2012
WMX – Championship Classification
Pos Nr Rider Nat. Total NED FRA ITA CRO SLO SVK GBR GER

1 8 Fontanesi, C. ITA 336 25-25 22-22 25-25 25-25 22-25 25-25 25-20 - -
2 44 Kane, Natalie GBR 264 18-13 18-18 20-0 22-22 25-22 22-22 20-22 - -
3 46 van der Wekken, B. NED 232 15-15 16-20 16-16 20-16 20-18 14-14 16-16 - -
4 52 Charroux, J. FRA 202 4-7 20-15 13-18 16-20 16-15 15-15 15-13 - -
5 111 Borchers, Anne GER 196 8-11 15-10 12-14 18-13 3-20 18-18 18-18 - -
6 116 Nocera, F. ITA 186 6-10 11-8 22-22 15-15 6-16 20-20 0-15 - -
7 149 Veenstra, M. NED 169 12-16 14-16 18-15 12-12 15-13 13-13 - - - -
8 18 Germond, V. SUI 153 0-0 13-14 3-13 14-10 18-8 16-16 14-14 - -
9 114 Lancelot, L. FRA 139 20-22 25-25 - - - - - - - - 22-25 - -
10 19 Miller, Joanna POL 119 0-4 10-12 14-20 13-18 14-14 - - - - - -
11 151 Klink, Nina NED 103 13-12 8-13 15-0 11-14 - - - - 7-10 - -
12 193 Braam, K. NED 103 7-6 4-6 7-10 6-9 13-12 11-12 - - - -
13 98 Schittenhelm, S. GER 100 0-0 2-4 8-8 8-8 11-10 12-11 11-7 - -
14 93 Parrini, F. ITA 78 0-0 7-9 9-4 10-11 10-11 7-0 - - - -
15 34 Dunlop, Alix GBR 67 9-1 0-2 4-12 3-5 8-7 4-5 2-5 - -
16 36 de Barquin, M. BEL 60 0-0 - - 6-6 9-7 9-6 9-8 - - - -
17 1 Laier, S. GER 42 22-20 - - - - - - - - - - - - - -
18 73 Pettersen, M. NOR 42 5-8 5-7 - - - - - - - - 5-12 - -
19 23 Paull, Sophia GBR 39 - - 0-0 10-11 - - - - - - 9-9 - -
20 32 Pettersson, S. SWE 34 16-18 - - - - - - - - - - - - - -
21 21 Irmgartz, Kim GER 31 10-9 - - - - - - - - - - 12-0 - -
22 25 Guryeva, E. RUS 31 0-0 0-0 5-9 5-4 5-3 - - - - - -
23 221 Lankova, B. CZE 30 - - - - - - 7-6 - - 8-9 - - - -
24 69 Stoutjesdijk, S. NED 30 0-3 0-0 2-5 1-2 4-5 3-1 1-3 - -
25 226 Östlund, Frida SWE 28 14-14 - - - - - - - - - - - - - -
26 83 Kärkäien, S. FIN 28 - - - - - - 4-3 12-9 - - - - - -
27 118 Pernet, Megane FRA 23 - - 12-11 - - - - - - - - - - - -
28 100 Lorca, Maria VEN 22 0-0 3-5 11-3 - - - - - - - - - -
29 33 Antosova, Jana CZE 22 - - - - - - - - 2-0 10-10 - - - -
30 39 Fisher, Stacey GBR 19 - - - - - - - - - - - - 8-11 - -..

EMX 65 – Race 1 – Classification
Pos Nr Rider Nat. Fed. Bike Time laps Diff. First Diff. Prev. Bestlaptime in lap Speed

1 237 Ramella, Xylian SUI FMS KTM 18:09.785 6 0:00.000 0:00.000 2:32.736 2 38.655
2 211 Hofer, Rene AUT OeAMTC KTM 18:21.309 6 0:11.524 0:11.524 2:34.186 3 38.291
3 730 Petrashin, Timur RUS MFR KTM 18:49.217 6 0:39.432 0:27.908 2:38.274 3 37.302
4 478 Meuwissen, Raf NED KNMV KTM 18:57.379 6 0:47.594 0:08.162 2:40.461 2 36.794
5 403 Boegh Damm, Bastian DEN DMU KTM 19:01.287 6 0:51.502 0:03.908 2:38.931 1 37.148
6 410 Dankers, Raivo NED KNMV KTM 19:02.861 6 0:53.076 0:01.574 2:38.142 3 37.334
7 222 Strubhart Moreau, Brian FRA FFM KTM 19:03.878 6 0:54.093 0:01.017 2:35.869 4 37.878
8 489 Olsson, Filip SWE SVEMO KTM 19:20.986 6 1:11.201 0:17.108 2:42.206 4 36.398
9 420 Van Der Klij, Brian NED KNMV KTM 19:23.877 6 1:14.092 0:02.891 2:41.478 5 36.562
10 50 Hranic, Nikola CRO HMS KTM 19:30.052 6 1:20.267 0:06.175 2:44.552 6 35.879
11 402 Woodcock, Dylan GBR ACU KTM 19:30.602 6 1:20.817 0:00.550 2:44.052 6 35.989
12 741 Moskalyuk, Mykola UKR FMU KTM 19:47.917 6 1:38.132 0:17.315 2:45.852 3 35.598
13 26 Halmi, Hakan BUL BMF KTM 19:55.313 6 1:45.528 0:07.396 2:46.935 6 35.367
14 777 Hiiemagi, Andreas EST EMF KTM 19:58.241 6 1:48.456 0:02.928 2:45.105 5 35.759
15 457 König, Hannes GER DMSB KTM 20:02.445 6 1:52.660 0:04.204 2:47.880 6 35.168
16 277 Lucas, Mario ESP RFME KTM 20:13.046 6 2:03.261 0:10.601 2:48.684 5 35
17 208 Barcella, Alberto ITA FMI KTM 20:15.326 6 2:05.541 0:02.280 2:48.875 1 34.961
18 623 Chernov, Dmytro UKR FMU KTM 20:30.509 6 2:20.724 0:15.183 2:40.097 3 36.878
19 333 Rigo, Elia ITA FMI KTM 20:41.530 6 2:31.745 0:11.021 2:52.886 5 34.15
20 273 Mausser, Maks SLO AMZS KTM 20:43.622 6 2:33.837 0:02.092 2:55.860 6 33.572
21 33 Georgiev, Julian BUL BMF KTM 21:17.818 6 3:08.033 0:34.196 2:55.649 3 33.612
22 224 Braceras Martinez, David ESP RFME KTM 18:02.469 5 1 lap 1 lap 2:50.021 3 34.725
23 36 Dimitrov, Alex BUL BMF KTM 18:22.867 5 1 lap 0:20.398 3:00.482 1 32.712
24 394 Facca, Alessandro ITA FMI KTM 18:25.510 5 1 lap 0:02.643 2:43.563 1 36.096
25 131 Ivanov, Momchil BUL BMF KTM 18:39.880 4 2 laps 1 lap 3:04.855 4 31.939
26 597 Nagy, Anton SWE SVEMO KTM 19:11.534 4 2 laps 0:31.654 2:51.657 4 34.394
27 288 Milec, Luka SLO AMZS KTM 10:32.813 3 3 laps 1 lap 2:37.565 2 37.47
28 424 Mäkinen, Arwid SWE SVEMO KTM 11:34.234 3 3 laps 1:01.421 2:48.167 1 35.108
29 9 Bertotto, Tommaso HUN MAMS KTM 3:04.295 0 6 laps 3 laps 0:00.000 0 0

EMX 85 – Race 1 – Classification
Pos Nr Rider Nat. Fed. Bike Time laps Diff. First Diff. Prev. Bestlaptime in lap Speed

1 446 Pootjes, Davy NED KNMV KTM 25:27.586 10 0:00.000 0:00.000 2:17.178 4 43.039
2 285 Herbreteau, David FRA FFM Kawasaki 25:35.231 10 0:07.645 0:07.645 2:17.689 5 42.879
3 481 Hsu, Brian GER DMSB Suzuki 25:36.113 10 0:08.527 0:00.882 2:17.498 2 42.939
4 261 Prado, Jorge ESP RFME KTM 25:54.156 10 0:26.570 0:18.043 2:19.988 1 42.175
5 731 Sileika, Tomas LAT LAMSF KTM 25:56.553 10 0:28.967 0:02.397 2:19.468 2 42.332
6 488 Wittlerbäumer, Tilo GER DMSB KTM 26:14.757 10 0:47.171 0:18.204 2:21.336 2 41.773
7 284 Camporese, Lorenzo ITA FMI KTM 26:18.221 10 0:50.635 0:03.464 2:21.392 1 41.756
8 740 Drevinskis, Kristers LAT LAMSF Suzuki 26:22.077 10 0:54.491 0:03.856 2:21.401 2 41.754
9 210 Ragadini, Tomas ITA FMI KTM 26:28.884 10 1:01.298 0:06.807 2:21.188 4 41.817
10 331 Malaval, Adrien FRA FFM Suzuki 26:30.621 10 1:03.035 0:01.737 2:22.234 5 41.509
11 99 Petrov, Ivan BUL BMF KTM 26:32.100 10 1:04.514 0:01.479 2:22.565 2 41.413
12 498 Vaessen, Bas NED KNMV KTM 26:34.547 10 1:06.961 0:02.447 2:20.139 8 42.13
13 426 Mewse, Conrad GBR ACU KTM 26:54.405 10 1:26.819 0:19.858 2:15.528 1 43.563
14 335 Lentini, Alessandro ITA FMI KTM 26:55.143 10 1:27.557 0:00.738 2:24.044 2 40.987
15 405 Genot, Cyril BEL FMB KTM 26:56.217 10 1:28.631 0:01.074 2:23.395 6 41.173
16 599 Staszkiewicz, Szymon POL MUL KTM 27:00.249 10 1:32.663 0:04.032 2:24.115 5 40.967
17 311 Lapucci, Nicholas ITA FMI KTM 27:05.934 10 1:38.348 0:05.685 2:23.821 5 41.051
18 644 Reinike, Karl-Robert EST EMF KTM 27:09.918 10 1:42.332 0:03.984 2:23.004 4 41.286
19 447 Sihvonen, Miro FIN SML KTM 27:20.867 10 1:53.281 0:10.949 2:23.216 5 41.224
20 622 Repcak, Pavol SVK SMF KTM 27:36.085 10 2:08.499 0:15.218 2:26.675 8 40.252
21 799 Talviku, Hendrik EST EMF Suzuki 27:37.489 10 2:09.903 0:01.404 2:26.020 5 40.433
22 497 Rock, Joey GER DMSB KTM 27:39.950 10 2:12.364 0:02.461 2:25.928 4 40.458
23 80 Georgiev, Georgi BUL BMF Suzuki 27:46.034 10 2:18.448 0:06.084 2:28.444 5 39.773
24 200 Zonta, Filippo ITA FMI KTM 27:49.078 10 2:21.492 0:03.044 2:23.557 5 41.127
25 303 Skorja, Nick SLO AMZS KTM 28:01.443 10 2:33.857 0:12.365 2:26.142 6 40.399
26 97 Ivanov, Michael BUL BMF KTM 28:13.308 10 2:45.722 0:11.865 2:21.284 6 41.788
27 770 Jakobson, Jan EST EMF KTM 25:32.929 9 1 lap 1 lap 2:29.108 2 39.595
28 111 Corbea, Ionut ROU FRM KTM 25:50.401 9 1 lap 0:17.472 2:30.489 5 39.232
29 767 Yurchenko, Makar RUS MFR Suzuki 26:08.918 9 1 lap 0:18.517 2:27.210 3 40.106
30 699 Talviku, Tamur EST EMF KTM 26:19.806 9 1 lap 0:10.888 2:24.924 2 40.739
31 289 Berto, Thomas ITA FMI KTM 26:32.314 9 1 lap 0:12.508 2:28.725 3 39.697
32 20 Ivelin, Manev BUL BMF KTM 28:16.383 9 1 lap 1:44.069 2:43.747 1 36.056
33 472 Meier, Glen DEN DMU KTM 10:02.922 3 7 laps 6 laps 2:26.974 3 40.17
34 197 Kelava, Matija CRO HMS KTM 8:17.306 2 8 laps 1 lap 2:28.415 1 39.78

Tim Gajser Champion EMX 125 ’2012..

EMX 125 – Race 1 – Classification
Pos Nr Rider Nat. Fed. Bike Time laps Diff. First Diff. Prev. Bestlaptime in lap Speed

1 243 Gajser, Tim SLO AMZS KTM 31:39.301 13 0:00.000 0:00.000 2:13.886 3 44.097
2 100 Klingsheim, Magne NOR NMF KTM 31:54.648 13 0:15.347 0:15.347 2:15.365 5 43.615
3 411 Dercourt, Nicolas FRA FFM Yamaha 32:01.045 13 0:21.744 0:06.397 2:15.486 6 43.576
4 95 Furlotti, Simone ITA FMI Suzuki 32:01.539 13 0:22.238 0:00.494 2:15.088 4 43.705
5 79 Corneth, Jaap NED KNMV KTM 32:02.555 13 0:23.254 0:01.016 2:15.905 4 43.442
6 274 Lundgren, Anton SWE SVEMO KTM 32:03.056 13 0:23.755 0:00.501 2:15.279 10 43.643
7 997 Righi, Riccardo ITA FMI KTM 32:04.301 13 0:25.000 0:01.245 2:15.977 5 43.419
8 200 Dunn, James GBR ACU KTM 32:06.539 13 0:27.238 0:02.238 2:13.038 13 44.378
9 16 Adams, Nicholas RSA ACU KTM 32:08.684 13 0:29.383 0:02.145 2:15.445 5 43.59
10 101 Kovar, Vaclav CZE ACCR KTM 32:22.093 13 0:42.792 0:13.409 2:15.043 8 43.719
11 99 Zaragoza Beltran, Jorge ESP RFME Suzuki 32:30.926 13 0:51.625 0:08.833 2:15.468 11 43.582
12 110 Verhaeghe, Alexis FRA FFM Kawasaki 32:35.427 13 0:56.126 0:04.501 2:17.407 3 42.967
13 29 Jacobi, Henry GER DMSB KTM 32:36.032 13 0:56.731 0:00.605 2:16.304 7 43.315
14 114 Della Mora, Alessio ITA FMI KTM 32:39.174 13 0:59.873 0:03.142 2:17.237 5 43.02
15 81 Larranaga, Iker ESP RFME Suzuki 32:42.447 13 1:03.146 0:03.273 2:17.372 6 42.978
16 141 Jonass, Pauls LAT LAMSF KTM 32:44.571 13 1:05.270 0:02.124 2:15.723 5 43.5
17 115 Ekerold, Stefan GER DMSB KTM 32:50.979 13 1:11.678 0:06.408 2:18.431 4 42.649
18 773 Do, Thomas FRA FFM KTM 32:51.964 13 1:12.663 0:00.985 2:16.853 9 43.141
19 148 Eccles, Michael GBR ACU KTM 32:54.633 13 1:15.332 0:02.669 2:18.624 6 42.59
20 77 Jasikonis, Arminas LTU LMSF KTM 33:08.651 13 1:29.350 0:14.018 2:18.470 5 42.637
21 17 te Beest, Mike NED KNMV KTM 33:10.791 13 1:31.490 0:02.140 2:18.428 8 42.65
22 223 De Pietri, Tommaso ITA FMI Suzuki 33:21.452 13 1:42.151 0:10.661 2:20.364 8 42.062
23 63 Bengtsson, Carl SWE SVEMO Yamaha 33:31.982 13 1:52.681 0:10.530 2:19.940 3 42.19
24 112 Vlaanderen, Calvin NED KNMV KTM 33:32.519 13 1:53.218 0:00.537 2:17.012 7 43.091
25 61 Östlund, Alvin SWE SVEMO Yamaha 33:34.831 13 1:55.530 0:02.312 2:20.775 6 41.939
26 690 Faequharson, Zane RSA FFM KTM 33:46.342 13 2:07.041 0:11.511 2:21.379 5 41.76
27 56 Ebbers, Jeffrey NED KNMV Yamaha 33:52.353 13 2:13.052 0:06.011 2:21.986 10 41.582
28 999 Bonini, Davide ITA FMI KTM 34:00.409 13 2:21.108 0:08.056 2:16.955 1 43.109
29 722 Mantovani, Michael ITA FMI KTM 34:05.552 13 2:26.251 0:05.143 2:20.765 5 41.942
30 156 van Nobelen, Jordi NED KNMV KTM 34:17.175 13 2:37.874 0:11.623 2:21.296 6 41.785
31 118 van Mechelen, Joel NED KNMV KTM 31:50.074 12 1 lap 1 lap 2:21.155 5 41.826
32 316 Ecca, Gianluca GER DMSB Suzuki 32:29.415 12 1 lap 0:39.341 2:25.454 4 40.59
33 278 Vermijl, Thomas BEL FMB KTM 33:15.063 12 1 lap 0:45.648 2:21.483 2 41.729
34 14 Hamlet, Charlie GBR ACU Suzuki 33:50.187 12 1 lap 0:35.124 2:26.505 5 40.299
35 125 Kouble, Krystof CZE ACCR KTM 32:38.983 11 2 laps 1 lap 2:27.113 2 40.132
36 511 Andersson, William SWE SVEMO KTM 21:22.199 8 5 laps 3 laps 2:19.906 7 42.2
37 189 Kordbarlag, Mikael GER DMSB KTM 14:14.159 5 8 laps 3 laps 2:19.533 4 42.313
38 188 Van Der Vlist, Freek NED KNMV KTM 12:30.370 3 10 laps 2 laps 2:16.475 1 43.261
39 84 van den Mierden, Sven NED KNMV KTM 2:37.017 0 13 laps 3 laps 0:00.000 0 0
40 107 Dessertenne, Ugo FRA FFM Yamaha 3:55.493 0 13 laps 1:18.476 0:00.000 0 0..

EMX 250 – Race 1 – Classification
Pos Nr Rider Nat. Fed. Bike Time laps Diff. First Diff. Prev. Bestlaptime in lap Speed

1 151 Desprey, Maxime FRA FFM Kawasaki 30:44.098 13 0:00.000 0:00.000 2:09.246 3 45.68
2 136 Olsen, Stefan Kjer DEN DMU Yamaha 30:53.758 13 0:09.660 0:09.660 2:10.352 5 45.293
3 71 Graulus, Damon BEL FMB Suzuki 31:01.412 13 0:17.314 0:07.654 2:10.347 3 45.294
4 837 Battig, Alessandro ITA FMI Yamaha 31:06.862 13 0:22.764 0:05.450 2:11.153 3 45.016
5 91 Seewer, Jeremy SUI FMS Suzuki 31:13.554 13 0:29.456 0:06.692 2:12.255 7 44.641
6 172 Van Doninck, Brent BEL FMB KTM 31:20.279 13 0:36.181 0:06.725 2:12.097 3 44.694
7 137 Escoffier, Adrien FRA FFM Kawasaki 31:37.094 13 0:52.996 0:16.815 2:14.037 3 44.048
8 222 Lacan, Jordan FRA FFM Kawasaki 31:40.000 13 0:55.902 0:02.906 2:12.322 3 44.618
9 951 Aubin, Arnaud FRA FFM KTM 31:41.733 13 0:57.635 0:01.733 2:13.610 6 44.188
10 119 Pocock, Mel GBR ACU Yamaha 31:48.359 13 1:04.261 0:06.626 2:12.405 3 44.59
11 61 Olsen, Thomas Kjer DEN DMU Yamaha 31:51.324 13 1:07.226 0:02.965 2:13.375 4 44.266
12 142 Paturel, Benoit FRA FFM Kawasaki 31:52.597 13 1:08.499 0:01.273 2:11.774 3 44.804
13 23 Bernardini, Samuele ITA FMI KTM 31:58.085 13 1:13.987 0:05.488 2:13.519 7 44.218
14 7 Bastemeijer, Donny NED KNMV Honda 31:59.764 13 1:15.666 0:01.679 2:15.000 11 43.733
15 707 Kappel, Robin FRA FFM KTM 32:00.684 13 1:16.586 0:00.920 2:14.125 4 44.019
16 18 De Waal, Micha – Boy NED KNMV Suzuki 32:01.927 13 1:17.829 0:01.243 2:14.683 4 43.836
17 39 Hjortmarker, Eddie SWE SVEMO Suzuki 32:08.930 13 1:24.832 0:07.003 2:14.637 4 43.851
18 140 Hugyecz, Erik HUN MAMS Yamaha 32:14.559 13 1:30.461 0:05.629 2:15.452 4 43.587
19 89 Bogers, Brian NED KNMV KTM 32:15.613 13 1:31.515 0:01.054 2:14.887 3 43.77
20 811 Sterry, Adam GBR ACU Honda 32:20.900 13 1:36.802 0:05.287 2:14.311 2 43.958
21 107 Van Berkel, Lars NED KNMV Honda 32:22.973 13 1:38.875 0:02.073 2:16.027 7 43.403
22 347 Jönsson, Pontus SWE SVEMO Suzuki 32:28.387 13 1:44.289 0:05.414 2:15.433 6 43.594
23 572 Jarva, Kim Oiva NOR NMF Honda 32:30.861 13 1:46.763 0:02.474 2:15.007 5 43.731
24 181 Albers, Rene NED KNMV KTM 32:41.845 13 1:57.747 0:10.984 2:16.934 7 43.116
25 247 Jönsson, Jesper SWE SVEMO Suzuki 32:42.968 13 1:58.870 0:01.123 2:17.105 7 43.062
26 250 Fura, Richard FRA FFM Kawasaki 32:49.649 13 2:05.551 0:06.681 2:15.103 2 43.7
27 90 Paganini, Marco ITA FMI Honda 32:51.405 13 2:07.307 0:01.756 2:16.728 7 43.181
28 94 Bakens, Robin BEL FMB TM 32:52.320 13 2:08.222 0:00.915 2:17.862 8 42.825
29 21 Plessers, Mathias BEL FMB Honda 32:54.282 13 2:10.184 0:01.962 2:17.816 11 42.84
30 92 Valentin Lasheras, Ander ESP RFME Yamaha 33:00.613 13 2:16.515 0:06.331 2:15.903 4 43.443..

(Photos : Youthstream, Ray Archer/KTM Racing & Yamaha Racing)

A voir aussi :

Le commentaires sont fermés.